Time;durP1;ratioP1;P1;durP2;ratioP2;P2;SDS_P1;SDS_P2;PMS_P1;PMS_P2;Temp;Humidity;BMP_temperature;BMP_pressure;BME280_temperature;BME280_humidity;BME280_pressure;Samples;Min_cycle;Max_cycle;Signal;HPM_P1;HPM_P2
2023/07/11 00:00:14;;;;;;;5.43;1.67;;;;;;;19.13;100.00;101613.72;6207395;28;20061;-74
2023/07/11 00:03:17;;;;;;;3.25;1.70;;;;;;;19.09;100.00;101606.91;6177184;28;20066;-74
2023/07/11 00:06:20;;;;;;;10.63;1.90;;;;;;;19.06;100.00;101606.28;6193285;28;20638;-74
2023/07/11 00:09:22;;;;;;;5.47;1.55;;;;;;;19.07;100.00;101607.97;6201342;28;20368;-74
2023/07/11 00:12:28;;;;;;;2.80;1.63;;;;;;;19.06;100.00;101604.47;6208196;28;20513;-74
2023/07/11 00:15:30;;;;;;;3.38;1.60;;;;;;;19.00;100.00;101600.47;6196539;28;20054;-74
2023/07/11 00:18:32;;;;;;;5.38;1.63;;;;;;;18.97;100.00;101603.34;6189330;28;20051;-74
2023/07/11 00:21:34;;;;;;;7.78;2.10;;;;;;;18.87;100.00;101598.81;6195311;28;20053;-74
2023/07/11 00:24:35;;;;;;;4.32;1.70;;;;;;;18.86;100.00;101602.47;6200957;28;20053;-74
2023/07/11 00:27:37;;;;;;;3.28;1.70;;;;;;;18.88;100.00;101601.38;6200923;28;20324;-74
2023/07/11 00:30:41;;;;;;;2.47;2.05;;;;;;;18.84;100.00;101593.72;6198363;28;20054;-74
2023/07/11 00:33:44;;;;;;;2.00;1.42;;;;;;;18.87;100.00;101589.03;6199610;28;20044;-74
2023/07/11 00:36:45;;;;;;;3.72;1.70;;;;;;;18.81;100.00;101581.50;6185675;28;20355;-74
2023/07/11 00:39:46;;;;;;;4.80;1.90;;;;;;;18.78;100.00;101584.38;6197264;28;20058;-74
2023/07/11 00:42:51;;;;;;;3.05;1.50;;;;;;;18.75;100.00;101584.59;6201143;28;20042;-74
2023/07/11 00:46:02;;;;;;;3.78;1.33;;;;;;;18.74;100.00;101583.75;6205210;28;20050;-74
2023/07/11 00:49:05;;;;;;;4.32;1.90;;;;;;;18.66;100.00;101575.44;6205284;28;20184;-74
2023/07/11 00:52:06;;;;;;;1.75;1.33;;;;;;;18.66;100.00;101571.94;6204916;28;20133;-74
2023/07/11 00:55:13;;;;;;;1.58;1.33;;;;;;;18.67;100.00;101571.00;6205192;28;20077;-74
2023/07/11 00:58:17;;;;;;;4.97;1.60;;;;;;;18.68;100.00;101562.03;6204945;28;20058;-74
2023/07/11 01:01:19;;;;;;;2.95;1.67;;;;;;;18.58;100.00;101558.38;6197478;28;20407;-74
2023/07/11 01:04:22;;;;;;;2.10;1.58;;;;;;;18.51;100.00;101549.97;6191612;28;20055;-74
2023/07/11 01:07:28;;;;;;;4.47;1.88;;;;;;;18.44;100.00;101554.03;6197423;28;20061;-74
2023/07/11 01:10:29;;;;;;;4.20;1.63;;;;;;;18.35;100.00;101549.38;6196685;28;20054;-74
2023/07/11 01:13:31;;;;;;;4.35;1.40;;;;;;;18.38;100.00;101554.50;6204646;28;20046;-74
2023/07/11 01:16:32;;;;;;;5.70;1.42;;;;;;;18.42;100.00;101555.97;6204699;28;20069;-74
2023/07/11 01:19:35;;;;;;;1.83;1.52;;;;;;;18.40;100.00;101545.44;6204479;28;20331;-74
2023/07/11 01:22:39;;;;;;;2.05;1.27;;;;;;;18.36;100.00;101553.78;6204222;28;20057;-74
2023/07/11 01:25:40;;;;;;;8.30;1.65;;;;;;;18.36;100.00;101548.44;6204297;28;20465;-74
2023/07/11 01:28:42;;;;;;;2.58;1.30;;;;;;;18.32;100.00;101544.31;6204418;28;20064;-74
2023/07/11 01:31:43;;;;;;;4.18;1.73;;;;;;;18.30;100.00;101544.41;6204081;28;20039;-74
2023/07/11 01:34:44;;;;;;;2.58;1.40;;;;;;;18.32;100.00;101541.66;6204178;28;20547;-74
2023/07/11 01:37:47;;;;;;;2.78;1.40;;;;;;;18.32;100.00;101523.03;6204005;28;20049;-74
2023/07/11 01:40:49;;;;;;;6.25;1.48;;;;;;;18.31;100.00;101527.50;6204258;28;20050;-74
2023/07/11 01:43:52;;;;;;;2.30;1.30;;;;;;;18.28;100.00;101521.53;6203768;28;20342;-74
2023/07/11 01:46:53;;;;;;;1.85;1.30;;;;;;;18.32;100.00;101523.88;6212326;28;20042;-74
2023/07/11 01:49:54;;;;;;;3.28;1.42;;;;;;;18.29;100.00;101523.22;6203074;28;20050;-74
2023/07/11 01:52:57;;;;;;;2.00;1.45;;;;;;;18.27;100.00;101514.53;6203458;28;20046;-74
2023/07/11 01:56:01;;;;;;;2.53;1.30;;;;;;;18.19;100.00;101523.06;6203837;28;20414;-74
2023/07/11 01:59:03;;;;;;;2.38;1.60;;;;;;;18.21;100.00;101521.13;6203376;28;20050;-74
2023/07/11 02:02:05;;;;;;;3.25;1.65;;;;;;;18.18;100.00;101518.72;6203363;28;20272;-74
2023/07/11 02:05:07;;;;;;;1.52;0.98;;;;;;;18.14;100.00;101514.56;6203549;28;20054;-74
2023/07/11 02:08:09;;;;;;;1.63;1.25;;;;;;;18.15;100.00;101498.50;6203260;28;20050;-74
2023/07/11 02:11:11;;;;;;;2.85;1.42;;;;;;;18.17;100.00;101501.06;6203368;28;20055;-74
2023/07/11 02:14:14;;;;;;;2.35;1.42;;;;;;;18.21;100.00;101502.50;6194095;28;20050;-74
2023/07/11 02:17:16;;;;;;;4.57;1.60;;;;;;;18.24;100.00;101500.47;6202676;28;20058;-74
2023/07/11 02:20:18;;;;;;;2.08;1.35;;;;;;;18.23;100.00;101500.59;6203220;28;20072;-74
2023/07/11 02:23:20;;;;;;;2.83;1.42;;;;;;;18.20;100.00;101493.66;6202425;28;20057;-74
2023/07/11 02:26:22;;;;;;;2.60;1.40;;;;;;;18.22;100.00;101493.59;6203217;28;20460;-74
2023/07/11 02:29:24;;;;;;;4.72;1.88;;;;;;;18.25;100.00;101490.66;6196184;28;20046;-74
2023/07/11 02:32:26;;;;;;;3.20;1.75;;;;;;;18.24;100.00;101492.50;6201738;28;20046;-74
2023/07/11 02:35:28;;;;;;;2.42;1.30;;;;;;;18.22;100.00;101491.78;6202769;28;20051;-74
2023/07/11 02:38:30;;;;;;;3.08;1.52;;;;;;;18.21;100.00;101489.19;6209696;28;20053;-74
2023/07/11 02:41:32;;;;;;;2.67;1.38;;;;;;;18.22;100.00;101480.28;6197667;28;20373;-74
2023/07/11 02:44:33;;;;;;;1.50;1.25;;;;;;;18.24;100.00;101483.66;6200554;28;20057;-74
2023/07/11 02:47:34;;;;;;;3.08;1.27;;;;;;;18.22;100.00;101481.13;6202603;28;20361;-74
2023/07/11 02:50:36;;;;;;;2.38;1.38;;;;;;;18.17;100.00;101483.28;6208502;28;20050;-74
2023/07/11 02:53:38;;;;;;;4.45;1.90;;;;;;;18.14;100.00;101475.50;6196678;28;20043;-74
2023/07/11 02:56:40;;;;;;;2.22;1.70;;;;;;;18.12;100.00;101469.47;6207707;28;20357;-74
2023/07/11 02:59:41;;;;;;;2.13;1.45;;;;;;;18.10;100.00;101482.03;6205148;28;20057;-74
2023/07/11 03:02:42;;;;;;;2.40;1.35;;;;;;;18.06;100.00;101475.22;6203355;28;20053;-74
2023/07/11 03:05:45;;;;;;;2.75;1.40;;;;;;;18.06;100.00;101475.22;6215487;28;20050;-74
2023/07/11 03:08:48;;;;;;;2.08;1.40;;;;;;;18.03;100.00;101458.63;6217137;28;20605;-74
2023/07/11 03:11:49;;;;;;;3.92;1.50;;;;;;;17.98;100.00;101459.81;6218388;28;20050;-74
2023/07/11 03:14:51;;;;;;;2.90;1.23;;;;;;;17.94;100.00;101453.03;6213169;28;20049;-76
2023/07/11 03:17:53;;;;;;;4.07;1.83;;;;;;;17.96;100.00;101460.91;6192781;28;20041;-75
2023/07/11 03:20:58;;;;;;;2.33;1.45;;;;;;;17.94;100.00;101450.38;6195533;28;20042;-74
2023/07/11 03:24:00;;;;;;;1.92;1.50;;;;;;;17.93;100.00;101450.47;6197859;28;20046;-74
2023/07/11 03:27:02;;;;;;;3.78;1.40;;;;;;;17.92;100.00;101451.44;6199569;28;20045;-75
2023/07/11 03:30:04;;;;;;;5.95;1.80;;;;;;;17.92;100.00;101446.97;6197403;28;20608;-75
2023/07/11 03:33:05;;;;;;;3.25;1.40;;;;;;;17.93;100.00;101440.69;6206244;28;20046;-75
2023/07/11 03:36:07;;;;;;;2.17;1.30;;;;;;;17.92;100.00;101438.16;6205554;28;20045;-75
2023/07/11 03:39:10;;;;;;;3.33;1.35;;;;;;;17.97;100.00;101433.34;6206611;28;20192;-75
2023/07/11 03:42:11;;;;;;;3.65;1.77;;;;;;;17.95;100.00;101432.63;6206850;28;20042;-74
2023/07/11 03:45:12;;;;;;;7.30;2.55;;;;;;;17.97;100.00;101428.88;6209173;28;20193;-74
2023/07/11 03:48:14;;;;;;;3.15;1.27;;;;;;;17.96;100.00;101431.66;6206071;28;20050;-74
2023/07/11 03:51:15;;;;;;;3.22;1.73;;;;;;;17.95;100.00;101422.81;6204457;28;20565;-74
2023/07/11 03:54:18;;;;;;;4.18;1.33;;;;;;;17.97;100.00;101426.22;6216568;28;20049;-74
2023/07/11 03:57:19;;;;;;;3.53;1.10;;;;;;;18.00;100.00;101425.16;6206825;28;20046;-74
2023/07/11 04:00:21;;;;;;;3.72;1.40;;;;;;;18.00;100.00;101420.66;6215762;28;20050;-74
2023/07/11 04:03:22;;;;;;;3.10;1.20;;;;;;;18.00;100.00;101417.16;6220711;28;20046;-74
2023/07/11 04:06:24;;;;;;;5.70;1.25;;;;;;;18.00;100.00;101411.84;6211307;28;20129;-74
2023/07/11 04:09:26;;;;;;;5.68;1.60;;;;;;;18.02;100.00;101411.72;6186133;28;20046;-69
2023/07/11 04:12:28;;;;;;;3.97;1.40;;;;;;;18.02;100.00;101407.25;6196720;28;20046;-69
2023/07/11 04:15:29;;;;;;;1.88;1.27;;;;;;;18.04;100.00;101396.50;6196971;28;20058;-69
2023/07/11 04:18:31;;;;;;;3.42;1.30;;;;;;;18.08;100.00;101403.31;6202857;28;20366;-69
2023/07/11 04:21:32;;;;;;;2.75;1.45;;;;;;;18.11;100.00;101400.41;6194038;28;20050;-69
2023/07/11 04:24:35;;;;;;;1.98;1.30;;;;;;;18.11;100.00;101395.91;6193015;28;20042;-69
2023/07/11 04:27:36;;;;;;;2.50;1.27;;;;;;;18.15;100.00;101399.22;6194586;28;20049;-69
2023/07/11 04:30:38;;;;;;;4.13;0.90;;;;;;;18.17;100.00;101397.31;6190845;28;20054;-69
2023/07/11 04:33:39;;;;;;;2.97;0.90;;;;;;;18.18;100.00;101397.19;6194233;28;20045;-69
2023/07/11 04:36:40;;;;;;;2.90;1.00;;;;;;;18.20;100.00;101392.56;6200403;28;20077;-69
2023/07/11 04:39:43;;;;;;;1.95;1.15;;;;;;;18.21;100.00;101396.06;6205621;28;20046;-69
2023/07/11 04:42:44;;;;;;;1.73;1.30;;;;;;;18.23;100.00;101391.50;6205301;28;20054;-69
2023/07/11 04:45:46;;;;;;;1.70;1.08;;;;;;;18.22;100.00;101382.69;6205596;28;20054;-76
2023/07/11 04:48:47;;;;;;;1.25;1.15;;;;;;;18.21;100.00;101386.31;6205291;28;20357;-74
2023/07/11 04:51:50;;;;;;;3.33;1.42;;;;;;;18.24;100.00;101390.53;6205048;28;20058;-74
2023/07/11 04:54:53;;;;;;;1.23;0.95;;;;;;;18.26;100.00;101385.97;6205737;28;20054;-74
2023/07/11 04:57:54;;;;;;;2.58;1.27;;;;;;;18.26;100.00;101388.63;6205377;28;20456;-74
2023/07/11 05:01:00;;;;;;;3.55;1.17;;;;;;;18.29;100.00;101385.72;6205382;28;20069;-74
2023/07/11 05:04:01;;;;;;;2.97;1.33;;;;;;;18.32;100.00;101387.31;6204760;28;20093;-74
2023/07/11 05:07:04;;;;;;;2.15;1.20;;;;;;;18.31;100.00;101382.97;6202798;28;20082;-74
2023/07/11 05:10:07;;;;;;;4.90;1.40;;;;;;;18.33;100.00;101373.88;6193514;28;20050;-74
2023/07/11 05:13:09;;;;;;;3.38;1.50;;;;;;;18.36;100.00;101375.47;6199294;28;20072;-74
2023/07/11 05:16:13;;;;;;;1.42;1.08;;;;;;;18.37;100.00;101375.34;6196116;28;20049;-74
2023/07/11 05:19:14;;;;;;;2.25;1.08;;;;;;;18.41;100.00;101378.63;6192420;28;20046;-74
2023/07/11 05:22:16;;;;;;;1.80;1.25;;;;;;;18.42;100.00;101367.00;6180330;28;20058;-74
2023/07/11 05:25:18;;;;;;;3.10;1.20;;;;;;;18.43;100.00;101361.56;6179420;28;20059;-74
2023/07/11 05:28:20;;;;;;;1.58;1.20;;;;;;;18.45;100.00;101367.63;6180328;28;20363;-74
2023/07/11 05:31:21;;;;;;;4.35;1.30;;;;;;;18.45;100.00;101367.63;6183947;28;20065;-74
2023/07/11 05:34:23;;;;;;;3.40;1.10;;;;;;;18.55;100.00;101362.44;6217035;28;20327;-74
2023/07/11 05:37:25;;;;;;;2.15;1.17;;;;;;;18.60;100.00;101362.09;6202567;28;20054;-74
2023/07/11 05:40:27;;;;;;;1.27;1.10;;;;;;;18.61;100.00;101358.44;6205593;28;20050;-74
2023/07/11 05:43:29;;;;;;;4.32;1.30;;;;;;;18.65;100.00;101359.91;6209559;28;20042;-74
2023/07/11 05:46:31;;;;;;;5.55;1.40;;;;;;;18.66;100.00;101354.47;6205348;28;20058;-74
2023/07/11 05:49:32;;;;;;;2.83;1.40;;;;;;;18.68;100.00;101344.56;6227662;28;20135;-74
2023/07/11 05:52:34;;;;;;;5.80;1.10;;;;;;;18.70;100.00;101339.13;6228298;28;20061;-74
2023/07/11 05:55:36;;;;;;;5.05;1.00;;;;;;;18.75;100.00;101335.13;6228455;28;20053;-74
2023/07/11 05:58:38;;;;;;;5.40;1.10;;;;;;;18.82;100.00;101332.00;6227954;28;20061;-74
2023/07/11 06:01:39;;;;;;;2.20;0.98;;;;;;;18.84;100.00;101322.06;6228127;28;20054;-74
2023/07/11 06:04:40;;;;;;;1.58;1.17;;;;;;;18.90;100.00;101318.94;6227749;28;20050;-75
2023/07/11 06:07:43;;;;;;;1.40;1.00;;;;;;;18.92;100.00;101320.50;6227905;28;20533;-74
2023/07/11 06:10:46;;;;;;;4.00;1.27;;;;;;;18.95;100.00;101314.09;6227870;28;20061;-74
2023/07/11 06:13:47;;;;;;;2.08;1.13;;;;;;;19.00;100.00;101314.56;6227696;28;20136;-74
2023/07/11 06:16:49;;;;;;;3.83;1.00;;;;;;;19.02;100.00;101309.94;6227682;28;20054;-74
2023/07/11 06:19:50;;;;;;;0.80;0.80;;;;;;;19.06;100.00;101303.41;6227814;28;20050;-74
2023/07/11 06:22:52;;;;;;;1.65;1.23;;;;;;;19.06;100.00;101306.06;6227627;28;20050;-74
2023/07/11 06:25:54;;;;;;;2.53;1.17;;;;;;;19.13;100.00;101301.13;6227493;28;20057;-74
2023/07/11 06:28:56;;;;;;;2.90;1.40;;;;;;;19.18;100.00;101298.94;6227698;28;20057;-74
2023/07/11 06:31:58;;;;;;;4.82;1.10;;;;;;;19.23;100.00;101288.72;6227051;28;20050;-74
2023/07/11 06:35:00;;;;;;;2.33;1.20;;;;;;;19.29;100.00;101290.88;6227267;28;20049;-74
2023/07/11 06:38:01;;;;;;;2.60;1.23;;;;;;;19.40;100.00;101290.03;6227134;28;20056;-74
2023/07/11 06:41:05;;;;;;;2.15;0.98;;;;;;;19.46;100.00;101294.84;6227415;28;20057;-74
2023/07/11 06:44:08;;;;;;;3.17;1.25;;;;;;;19.50;100.00;101285.63;6226577;28;20046;-74
2023/07/11 06:47:09;;;;;;;3.50;1.20;;;;;;;19.58;100.00;101283.19;6227170;28;20050;-74
2023/07/11 06:50:11;;;;;;;2.88;1.25;;;;;;;19.61;100.00;101284.78;6227056;28;20065;-74
2023/07/11 06:53:12;;;;;;;2.83;1.15;;;;;;;19.64;100.00;101285.38;6226670;28;20072;-74
2023/07/11 06:56:15;;;;;;;3.45;1.23;;;;;;;19.72;100.00;101279.41;6226927;28;20050;-74
2023/07/11 06:59:20;;;;;;;5.38;1.13;;;;;;;19.79;100.00;101272.56;6226965;28;20060;-74
2023/07/11 07:02:21;;;;;;;5.18;1.55;;;;;;;19.93;100.00;101276.75;6226547;28;20132;-74
2023/07/11 07:05:22;;;;;;;5.88;1.27;;;;;;;19.98;100.00;101274.53;6226831;28;20054;-74
2023/07/11 07:08:25;;;;;;;7.25;1.23;;;;;;;20.00;100.00;101265.44;6226479;28;20053;-74
2023/07/11 07:11:28;;;;;;;1.63;1.08;;;;;;;20.02;100.00;101262.63;6226978;28;20057;-74
2023/07/11 07:14:29;;;;;;;4.10;0.98;;;;;;;20.09;100.00;101254.97;6226598;28;20053;-74
2023/07/11 07:17:30;;;;;;;4.47;1.35;;;;;;;20.17;100.00;101253.31;6226313;28;20050;-74
2023/07/11 07:20:32;;;;;;;3.70;0.90;;;;;;;20.27;100.00;101246.22;6226588;28;20060;-74
2023/07/11 07:23:34;;;;;;;3.33;1.02;;;;;;;20.40;100.00;101251.34;6226025;28;20046;-74
2023/07/11 07:26:37;;;;;;;2.38;1.15;;;;;;;20.50;100.00;101254.94;6226302;28;20481;-74
2023/07/11 07:29:38;;;;;;;2.65;1.45;;;;;;;20.51;100.00;101243.25;6226112;28;20049;-74
2023/07/11 07:32:40;;;;;;;3.75;1.30;;;;;;;20.56;100.00;101245.53;6226150;28;20061;-75
2023/07/11 07:35:42;;;;;;;3.60;1.50;;;;;;;20.62;100.00;101245.00;6226067;28;20072;-74
2023/07/11 07:38:43;;;;;;;2.15;1.25;;;;;;;20.65;100.00;101239.38;6226251;28;20053;-75
2023/07/11 07:41:46;;;;;;;2.83;1.10;;;;;;;20.77;97.41;101234.78;6225974;28;20046;-75
2023/07/11 07:44:48;;;;;;;1.70;1.25;;;;;;;20.90;98.51;101223.88;6226234;28;20050;-74
2023/07/11 07:47:49;;;;;;;4.00;1.33;;;;;;;20.97;99.04;101235.69;6230450;28;20136;-74
2023/07/11 07:50:51;;;;;;;4.28;1.45;;;;;;;21.06;95.65;101234.00;6234138;28;20045;-74
2023/07/11 07:53:52;;;;;;;5.15;1.75;;;;;;;21.13;94.54;101221.81;6233983;28;20042;-74
2023/07/11 07:56:55;;;;;;;2.53;1.40;;;;;;;21.30;90.14;101223.75;6234279;28;20054;-74
2023/07/11 07:59:56;;;;;;;2.65;1.30;;;;;;;21.36;93.06;101225.09;6234000;28;20369;-75
2023/07/11 08:02:57;;;;;;;4.53;1.35;;;;;;;21.36;93.66;101219.75;6233613;28;20350;-73
2023/07/11 08:06:00;;;;;;;2.25;1.17;;;;;;;21.45;90.76;101213.53;6234161;28;20064;-74
2023/07/11 08:09:01;;;;;;;1.83;1.27;;;;;;;21.45;92.88;101206.38;6233749;28;20057;-74
2023/07/11 08:12:08;;;;;;;2.28;1.05;;;;;;;21.53;93.06;101205.66;6233794;28;20101;-74
2023/07/11 08:15:11;;;;;;;5.97;1.40;;;;;;;21.58;92.58;101205.25;6233686;28;20486;-74
2023/07/11 08:18:13;;;;;;;5.57;1.45;;;;;;;21.58;96.79;101200.72;6233898;28;20050;-74
2023/07/11 08:21:14;;;;;;;2.50;1.17;;;;;;;21.66;92.57;101203.50;6233739;28;20050;-83
2023/07/11 08:24:16;;;;;;;4.70;1.33;;;;;;;21.84;87.29;101189.41;6233763;28;20477;-74
2023/07/11 08:27:18;;;;;;;2.92;1.52;;;;;;;21.84;90.37;101184.91;6233830;28;20141;-74
2023/07/11 08:30:20;;;;;;;2.42;1.27;;;;;;;21.85;90.52;101180.41;6233333;28;20057;-74
2023/07/11 08:33:21;;;;;;;3.17;1.48;;;;;;;21.89;88.92;101174.63;6233536;28;20061;-74
2023/07/11 08:36:23;;;;;;;3.20;1.35;;;;;;;21.97;90.85;101169.38;6233571;28;20057;-74
2023/07/11 08:39:24;;;;;;;2.97;1.40;;;;;;;22.08;87.74;101175.56;6233772;28;20061;-74
2023/07/11 08:42:32;;;;;;;2.35;1.38;;;;;;;22.25;84.55;101164.94;6233456;28;20357;-74
2023/07/11 08:45:39;;;;;;;1.70;0.98;;;;;;;22.35;84.55;101167.59;6233820;28;20057;-74
2023/07/11 08:48:45;;;;;;;3.45;1.30;;;;;;;22.34;85.23;101157.00;6233538;28;20453;-74
2023/07/11 08:51:51;;;;;;;1.90;0.90;;;;;;;22.37;86.89;101151.38;6233472;28;20054;-74
2023/07/11 08:54:57;;;;;;;2.10;1.55;;;;;;;22.40;86.63;101154.59;6233340;28;20056;-74
2023/07/11 08:58:09;;;;;;;3.92;1.20;;;;;;;22.53;84.29;101148.91;6232930;28;20054;-74
2023/07/11 09:01:30;;;;;;;3.40;1.42;;;;;;;22.56;84.87;101147.75;6229501;28;20056;-74
2023/07/11 09:04:33;;;;;;;2.47;1.38;;;;;;;22.51;86.83;101148.19;6229384;28;20497;-74
2023/07/11 09:07:37;;;;;;;3.90;1.85;;;;;;;22.64;86.40;101142.47;6229166;28;20060;-74
2023/07/11 09:10:46;;;;;;;2.30;1.00;;;;;;;22.67;85.97;101140.34;6229172;28;20362;-74
2023/07/11 09:14:04;;;;;;;2.50;1.42;;;;;;;22.77;87.88;101133.09;6228872;28;20450;-74
2023/07/11 09:17:13;;;;;;;4.30;1.55;;;;;;;22.81;83.63;101125.59;6229221;28;20053;-74
2023/07/11 09:20:23;;;;;;;2.55;1.40;;;;;;;22.91;83.18;101129.06;6229194;28;20050;-74
2023/07/11 09:23:41;;;;;;;1.95;1.27;;;;;;;23.13;78.36;101124.25;6228794;28;20054;-74
2023/07/11 09:26:47;;;;;;;2.73;1.57;;;;;;;23.14;83.03;101125.91;6228895;28;20053;-74
2023/07/11 09:29:51;;;;;;;2.03;1.48;;;;;;;23.29;81.43;101127.03;6228950;28;20080;-74
2023/07/11 09:32:52;;;;;;;4.65;1.25;;;;;;;23.37;78.09;101121.75;6228445;28;20054;-74
2023/07/11 09:35:54;;;;;;;1.83;1.30;;;;;;;23.48;77.27;101118.84;6228857;28;20050;-74
2023/07/11 09:38:59;;;;;;;2.33;1.30;;;;;;;23.60;74.86;101110.50;6228537;28;20058;-74
2023/07/11 09:42:05;;;;;;;3.33;1.40;;;;;;;23.65;71.67;101108.22;6220348;28;20051;-74
2023/07/11 09:45:11;;;;;;;1.85;1.48;;;;;;;23.79;70.94;101103.09;6182533;28;20459;-76
2023/07/11 09:48:16;;;;;;;1.92;1.27;;;;;;;23.89;69.25;101111.06;6180104;28;20439;-74
2023/07/11 09:51:25;;;;;;;4.32;1.63;;;;;;;23.91;66.19;101102.84;6179853;28;20054;-74
2023/07/11 09:54:29;;;;;;;3.60;1.42;;;;;;;23.98;66.71;101104.75;6179725;28;20137;-69
2023/07/11 09:57:30;;;;;;;2.08;1.50;;;;;;;24.01;65.15;101095.50;6192806;28;20043;-70
2023/07/11 10:00:33;;;;;;;1.83;1.15;;;;;;;24.07;65.12;101094.84;6190315;28;20051;-69
2023/07/11 10:03:35;;;;;;;2.42;1.52;;;;;;;24.12;66.08;101083.63;6179282;28;20150;-69
2023/07/11 10:06:42;;;;;;;3.25;1.05;;;;;;;24.15;68.75;101080.63;6189275;28;20050;-69
2023/07/11 10:09:45;;;;;;;2.78;1.20;;;;;;;24.13;68.44;101069.22;6181993;28;20090;-70
2023/07/11 10:12:46;;;;;;;1.70;1.40;;;;;;;24.37;66.78;101071.16;6179293;28;20054;-69
2023/07/11 10:15:52;;;;;;;3.20;1.63;;;;;;;24.36;66.46;101070.31;6179397;28;20058;-69
2023/07/11 10:18:53;;;;;;;2.92;1.40;;;;;;;24.59;61.68;101067.88;6179443;28;20046;-70
2023/07/11 10:22:00;;;;;;;3.30;1.52;;;;;;;24.67;64.04;101070.56;6179002;28;20466;-70
2023/07/11 10:25:03;;;;;;;3.13;1.50;;;;;;;24.74;63.00;101066.19;6179283;28;20123;-69
2023/07/11 10:28:16;;;;;;;4.95;1.30;;;;;;;24.69;63.39;101065.84;6179681;28;20060;-69
2023/07/11 10:31:24;;;;;;;1.73;1.38;;;;;;;24.62;63.52;101061.31;6203348;28;20050;-70
2023/07/11 10:34:30;;;;;;;3.42;1.40;;;;;;;24.76;60.24;101047.22;6203131;28;20137;-70
2023/07/11 10:37:39;;;;;;;3.35;1.65;;;;;;;24.83;61.57;101050.91;6202851;28;20050;-69
2023/07/11 10:40:46;;;;;;;1.80;1.27;;;;;;;25.05;61.68;101044.88;6203112;28;20570;-69
2023/07/11 10:43:50;;;;;;;2.83;1.60;;;;;;;25.26;64.56;101044.38;6202746;28;20358;-69
2023/07/11 10:46:54;;;;;;;2.67;1.45;;;;;;;25.25;62.83;101040.03;6202950;28;20061;-69
2023/07/11 10:49:58;;;;;;;2.38;1.50;;;;;;;25.15;63.12;101031.28;6202663;28;20439;-69
2023/07/11 10:53:05;;;;;;;1.92;1.23;;;;;;;25.19;62.68;101026.41;6202478;28;20057;-69
2023/07/11 10:56:11;;;;;;;3.05;1.75;;;;;;;25.26;65.45;101019.34;6202420;28;20174;-69
2023/07/11 10:59:14;;;;;;;4.32;1.60;;;;;;;25.33;64.74;101019.47;6202557;28;20054;-69
2023/07/11 11:02:23;;;;;;;4.80;2.00;;;;;;;25.55;66.56;101006.13;6202048;28;20370;-69
2023/07/11 11:05:29;;;;;;;2.95;1.63;;;;;;;25.65;61.96;100994.31;6202459;28;20046;-69
2023/07/11 11:08:37;;;;;;;2.90;1.85;;;;;;;25.63;61.98;100981.03;6202100;28;20077;-69
2023/07/11 11:11:50;;;;;;;3.30;1.60;;;;;;;25.60;64.82;100981.38;6202235;28;20054;-69
2023/07/11 11:14:59;;;;;;;4.55;1.90;;;;;;;25.74;64.78;100977.13;6202106;28;20439;-70
2023/07/11 11:18:21;;;;;;;2.55;1.33;;;;;;;26.04;63.15;100978.19;6202206;28;20057;-70
2023/07/11 11:21:28;;;;;;;2.38;1.73;;;;;;;26.09;60.54;100973.09;6201866;28;20051;-69
2023/07/11 11:24:46;;;;;;;3.47;1.60;;;;;;;26.13;60.20;100966.34;6201779;28;20050;-69
2023/07/11 11:27:57;;;;;;;4.03;1.95;;;;;;;26.37;60.39;100973.41;6202096;28;20057;-69
2023/07/11 11:31:06;;;;;;;2.50;1.52;;;;;;;26.62;52.98;100970.59;6201941;28;20142;-70
2023/07/11 11:34:27;;;;;;;4.68;1.58;;;;;;;26.62;59.70;100963.34;6201978;28;20462;-70
2023/07/11 11:37:38;;;;;;;1.83;1.40;;;;;;;26.80;59.42;100957.63;6201717;28;20057;-70
2023/07/11 11:40:43;;;;;;;3.80;1.85;;;;;;;26.82;57.24;100950.16;6201866;28;20054;-70
2023/07/11 11:43:48;;;;;;;3.10;1.70;;;;;;;27.08;56.66;100955.13;6201901;28;20057;-70
2023/07/11 11:46:51;;;;;;;2.40;1.60;;;;;;;27.16;53.70;100949.69;6201937;28;20431;-69
2023/07/11 11:49:56;;;;;;;3.05;1.73;;;;;;;27.25;55.19;100947.72;6201567;28;20053;-69
2023/07/11 11:53:16;;;;;;;3.08;1.60;;;;;;;27.25;57.24;100950.41;6201858;28;20050;-69
2023/07/11 11:56:19;;;;;;;2.70;1.83;;;;;;;27.21;53.40;100944.56;6201474;28;20344;-70
2023/07/11 11:59:24;;;;;;;2.22;1.55;;;;;;;26.97;59.25;100940.22;6201612;28;20054;-70
2023/07/11 12:02:32;;;;;;;3.40;1.98;;;;;;;26.80;60.87;100936.88;6201215;28;20054;-70
2023/07/11 12:05:36;;;;;;;2.92;1.33;;;;;;;26.74;60.62;100940.28;6201617;28;20046;-69
2023/07/11 12:08:38;;;;;;;3.28;1.90;;;;;;;26.73;55.22;100941.31;6201187;28;20061;-72
2023/07/11 12:11:43;;;;;;;2.45;1.90;;;;;;;26.59;59.42;100933.19;6201434;28;20130;-70
2023/07/11 12:14:58;;;;;;;4.50;1.67;;;;;;;26.58;60.29;100929.66;6201427;28;20057;-70
2023/07/11 12:18:15;;;;;;;2.85;1.80;;;;;;;26.65;59.23;100919.81;6201613;28;20056;-70
2023/07/11 12:21:33;;;;;;;4.82;2.03;;;;;;;26.81;57.13;100916.13;6201642;28;20057;-70
2023/07/11 12:24:45;;;;;;;3.50;1.90;;;;;;;26.83;65.22;100915.94;6201293;28;20049;-70
2023/07/11 12:28:01;;;;;;;3.20;2.05;;;;;;;26.96;65.57;100906.19;6201292;28;20081;-70
2023/07/11 12:31:16;;;;;;;4.30;1.92;;;;;;;27.05;62.81;100918.56;6201527;28;20059;-70
2023/07/11 12:34:17;;;;;;;4.88;2.10;;;;;;;27.18;64.30;100909.84;6203964;28;20451;-70
2023/07/11 12:37:23;;;;;;;3.88;2.00;;;;;;;27.15;63.24;100904.81;6205838;28;20450;-70
2023/07/11 12:40:31;;;;;;;2.80;1.67;;;;;;;27.19;59.69;100899.91;6205984;28;20058;-75
2023/07/11 12:43:36;;;;;;;3.97;2.17;;;;;;;27.17;62.96;100897.41;6205421;28;20081;-70
2023/07/11 12:46:38;;;;;;;2.75;1.88;;;;;;;27.40;64.64;100901.84;6205464;28;20046;-69
2023/07/11 12:49:42;;;;;;;5.90;1.90;;;;;;;27.71;65.24;100898.91;6205765;28;20050;-69
2023/07/11 12:52:46;;;;;;;2.92;1.85;;;;;;;27.89;62.33;100901.19;6205088;28;20043;-70
2023/07/11 12:55:52;;;;;;;3.30;1.98;;;;;;;27.97;59.92;100892.97;6205576;28;20049;-70
2023/07/11 12:58:53;;;;;;;3.10;1.80;;;;;;;28.01;60.71;100884.28;6205306;28;20050;-70
2023/07/11 13:01:58;;;;;;;3.05;1.90;;;;;;;28.05;59.33;100884.75;6205198;28;20050;-70
2023/07/11 13:04:59;;;;;;;2.70;2.10;;;;;;;28.01;59.07;100880.75;6205200;28;20078;-70
2023/07/11 13:08:13;;;;;;;4.15;1.90;;;;;;;27.90;60.36;100886.69;6204888;28;20358;-69
2023/07/11 13:11:21;;;;;;;3.22;1.83;;;;;;;27.86;57.49;100879.97;6204942;28;20351;-70
2023/07/11 13:14:23;;;;;;;2.70;1.75;;;;;;;27.77;60.78;100874.69;6204877;28;20057;-69
2023/07/11 13:17:25;;;;;;;2.65;1.88;;;;;;;27.72;62.20;100873.59;6204803;28;20046;-69
2023/07/11 13:20:31;;;;;;;6.40;2.40;;;;;;;27.88;55.56;100870.63;6204936;28;20049;-70
2023/07/11 13:23:37;;;;;;;5.80;1.75;;;;;;;28.01;55.59;100864.53;6204502;28;20050;-69
2023/07/11 13:26:38;;;;;;;2.42;1.75;;;;;;;28.03;54.54;100863.31;6204819;28;20450;-69
2023/07/11 13:29:40;;;;;;;4.32;2.20;;;;;;;28.22;55.33;100861.84;6204505;28;20051;-69
2023/07/11 13:32:41;;;;;;;2.67;1.75;;;;;;;28.59;58.19;100864.44;6204424;28;20049;-69
2023/07/11 13:35:50;;;;;;;2.53;2.00;;;;;;;29.19;53.77;100854.84;6204521;28;20042;-69
2023/07/11 13:38:55;;;;;;;3.90;1.95;;;;;;;29.42;50.30;100857.22;6204264;28;20355;-69
2023/07/11 13:41:59;;;;;;;5.93;2.35;;;;;;;29.28;48.86;100842.78;6204131;28;20435;-69
2023/07/11 13:45:12;;;;;;;3.15;1.88;;;;;;;29.27;50.17;100844.66;6203176;28;20355;-69
2023/07/11 13:48:16;;;;;;;3.10;2.00;;;;;;;29.55;52.10;100846.47;6203957;28;20047;-69
2023/07/11 13:51:21;;;;;;;3.95;2.05;;;;;;;29.85;50.58;100855.09;6204307;28;20061;-69
2023/07/11 13:54:31;;;;;;;3.10;1.90;;;;;;;30.06;48.48;100840.50;6203930;28;20058;-70
2023/07/11 13:57:32;;;;;;;3.15;1.90;;;;;;;30.16;49.18;100838.25;6203974;28;20042;-70
2023/07/11 14:00:34;;;;;;;3.75;2.22;;;;;;;30.18;47.83;100835.34;6204148;28;20479;-70
2023/07/11 14:03:35;;;;;;;7.10;2.15;;;;;;;30.08;46.56;100836.56;6196792;28;20205;-69
2023/07/11 14:06:39;;;;;;;3.97;2.40;;;;;;;29.83;46.17;100838.19;6189717;28;20355;-69
2023/07/11 14:09:42;;;;;;;2.92;1.98;;;;;;;29.65;48.14;100827.94;6214658;28;20153;-69